sensor_id;sensor_type;location;lat;lon;timestamp;temperature;humidity
36450;DHT22;22475;51.390;7.180;2022-08-19T00:00:16;22.10;91.50
36450;DHT22;22475;51.390;7.180;2022-08-19T00:02:44;22.10;91.90
36450;DHT22;22475;51.390;7.180;2022-08-19T00:05:12;22.10;91.50
36450;DHT22;22475;51.390;7.180;2022-08-19T00:07:39;22.10;91.50
36450;DHT22;22475;51.390;7.180;2022-08-19T00:10:10;22.10;91.60
36450;DHT22;22475;51.390;7.180;2022-08-19T00:12:38;22.10;91.60
36450;DHT22;22475;51.390;7.180;2022-08-19T00:15:07;22.10;91.60
36450;DHT22;22475;51.390;7.180;2022-08-19T00:17:38;22.10;91.60
36450;DHT22;22475;51.390;7.180;2022-08-19T00:20:06;22.10;91.60
36450;DHT22;22475;51.390;7.180;2022-08-19T00:22:33;22.10;91.60
36450;DHT22;22475;51.390;7.180;2022-08-19T00:25:00;22.10;91.60
36450;DHT22;22475;51.390;7.180;2022-08-19T00:27:28;22.10;91.60
36450;DHT22;22475;51.390;7.180;2022-08-19T00:29:55;22.10;91.60
36450;DHT22;22475;51.390;7.180;2022-08-19T00:32:24;22.10;91.60
36450;DHT22;22475;51.390;7.180;2022-08-19T00:34:51;22.10;91.60
36450;DHT22;22475;51.390;7.180;2022-08-19T00:37:19;22.10;91.60
36450;DHT22;22475;51.390;7.180;2022-08-19T00:39:48;22.10;91.60
36450;DHT22;22475;51.390;7.180;2022-08-19T00:42:16;22.10;91.50
36450;DHT22;22475;51.390;7.180;2022-08-19T00:44:45;22.10;91.60
36450;DHT22;22475;51.390;7.180;2022-08-19T00:47:12;22.10;91.60
36450;DHT22;22475;51.390;7.180;2022-08-19T00:49:42;22.10;91.60
36450;DHT22;22475;51.390;7.180;2022-08-19T00:52:14;22.10;91.60
36450;DHT22;22475;51.390;7.180;2022-08-19T00:54:43;22.10;91.60
36450;DHT22;22475;51.390;7.180;2022-08-19T00:57:13;22.10;91.60
36450;DHT22;22475;51.390;7.180;2022-08-19T00:59:44;22.10;91.60
36450;DHT22;22475;51.390;7.180;2022-08-19T01:02:12;22.10;91.60
36450;DHT22;22475;51.390;7.180;2022-08-19T01:04:40;22.10;91.60
36450;DHT22;22475;51.390;7.180;2022-08-19T01:07:07;22.10;91.60
36450;DHT22;22475;51.390;7.180;2022-08-19T01:09:34;22.10;91.60
36450;DHT22;22475;51.390;7.180;2022-08-19T01:12:02;22.00;91.60
36450;DHT22;22475;51.390;7.180;2022-08-19T01:14:30;22.00;91.60
36450;DHT22;22475;51.390;7.180;2022-08-19T01:16:58;22.00;91.60
36450;DHT22;22475;51.390;7.180;2022-08-19T01:19:28;22.00;91.60
36450;DHT22;22475;51.390;7.180;2022-08-19T01:22:01;22.00;91.60
36450;DHT22;22475;51.390;7.180;2022-08-19T01:24:30;22.00;91.60
36450;DHT22;22475;51.390;7.180;2022-08-19T01:26:57;22.00;91.60
36450;DHT22;22475;51.390;7.180;2022-08-19T01:29:25;22.00;91.60
36450;DHT22;22475;51.390;7.180;2022-08-19T01:31:52;22.00;91.90
36450;DHT22;22475;51.390;7.180;2022-08-19T01:34:19;22.00;91.60
36450;DHT22;22475;51.390;7.180;2022-08-19T01:36:47;22.10;91.60
36450;DHT22;22475;51.390;7.180;2022-08-19T01:39:17;22.00;91.60
36450;DHT22;22475;51.390;7.180;2022-08-19T01:41:46;22.00;91.60
36450;DHT22;22475;51.390;7.180;2022-08-19T01:44:14;22.00;91.60
36450;DHT22;22475;51.390;7.180;2022-08-19T01:46:42;22.00;91.60
36450;DHT22;22475;51.390;7.180;2022-08-19T01:49:09;22.00;91.60
36450;DHT22;22475;51.390;7.180;2022-08-19T01:51:36;22.00;91.60
36450;DHT22;22475;51.390;7.180;2022-08-19T01:54:03;22.00;91.60
36450;DHT22;22475;51.390;7.180;2022-08-19T01:56:30;22.00;91.60
36450;DHT22;22475;51.390;7.180;2022-08-19T01:59:02;22.00;91.60
36450;DHT22;22475;51.390;7.180;2022-08-19T02:01:30;22.00;91.60
36450;DHT22;22475;51.390;7.180;2022-08-19T02:03:58;22.00;91.60
36450;DHT22;22475;51.390;7.180;2022-08-19T02:06:26;22.00;91.60
36450;DHT22;22475;51.390;7.180;2022-08-19T02:08:53;22.00;91.60
36450;DHT22;22475;51.390;7.180;2022-08-19T02:11:21;22.00;91.50
36450;DHT22;22475;51.390;7.180;2022-08-19T02:13:49;22.00;91.60
36450;DHT22;22475;51.390;7.180;2022-08-19T02:16:18;22.00;91.60
36450;DHT22;22475;51.390;7.180;2022-08-19T02:18:46;22.00;91.60
36450;DHT22;22475;51.390;7.180;2022-08-19T02:21:14;22.00;91.60
36450;DHT22;22475;51.390;7.180;2022-08-19T02:23:41;22.00;91.60
36450;DHT22;22475;51.390;7.180;2022-08-19T02:26:08;22.00;91.60
36450;DHT22;22475;51.390;7.180;2022-08-19T02:28:36;22.00;91.60
36450;DHT22;22475;51.390;7.180;2022-08-19T02:31:03;22.00;91.90
36450;DHT22;22475;51.390;7.180;2022-08-19T02:33:31;22.00;91.60
36450;DHT22;22475;51.390;7.180;2022-08-19T02:35:58;22.00;91.60
36450;DHT22;22475;51.390;7.180;2022-08-19T02:38:25;22.00;91.60
36450;DHT22;22475;51.390;7.180;2022-08-19T02:40:54;22.00;91.50
36450;DHT22;22475;51.390;7.180;2022-08-19T02:43:21;22.00;91.50
36450;DHT22;22475;51.390;7.180;2022-08-19T02:45:49;22.00;91.50
36450;DHT22;22475;51.390;7.180;2022-08-19T02:48:17;22.00;91.50
36450;DHT22;22475;51.390;7.180;2022-08-19T02:50:46;22.00;91.50
36450;DHT22;22475;51.390;7.180;2022-08-19T02:53:14;22.00;91.60
36450;DHT22;22475;51.390;7.180;2022-08-19T02:55:44;22.00;91.50
36450;DHT22;22475;51.390;7.180;2022-08-19T02:58:12;22.00;91.50
36450;DHT22;22475;51.390;7.180;2022-08-19T03:00:44;22.00;91.60
36450;DHT22;22475;51.390;7.180;2022-08-19T03:03:11;22.00;91.50
36450;DHT22;22475;51.390;7.180;2022-08-19T03:05:38;21.90;91.50
36450;DHT22;22475;51.390;7.180;2022-08-19T03:08:06;21.90;91.50
36450;DHT22;22475;51.390;7.180;2022-08-19T03:10:33;21.90;91.50
36450;DHT22;22475;51.390;7.180;2022-08-19T03:13:05;21.90;91.50
36450;DHT22;22475;51.390;7.180;2022-08-19T03:15:32;21.90;91.50
36450;DHT22;22475;51.390;7.180;2022-08-19T03:17:59;21.90;91.40
36450;DHT22;22475;51.390;7.180;2022-08-19T03:20:26;21.90;91.40
36450;DHT22;22475;51.390;7.180;2022-08-19T03:22:53;21.90;91.40
36450;DHT22;22475;51.390;7.180;2022-08-19T03:25:21;21.90;91.40
36450;DHT22;22475;51.390;7.180;2022-08-19T03:27:48;21.90;91.40
36450;DHT22;22475;51.390;7.180;2022-08-19T03:30:15;21.90;91.40
36450;DHT22;22475;51.390;7.180;2022-08-19T03:32:41;21.90;91.40
36450;DHT22;22475;51.390;7.180;2022-08-19T03:35:09;21.90;91.40
36450;DHT22;22475;51.390;7.180;2022-08-19T03:37:36;21.90;91.40
36450;DHT22;22475;51.390;7.180;2022-08-19T03:40:03;21.90;91.40
36450;DHT22;22475;51.390;7.180;2022-08-19T03:42:32;22.00;91.50
36450;DHT22;22475;51.390;7.180;2022-08-19T03:44:58;21.90;91.40
36450;DHT22;22475;51.390;7.180;2022-08-19T03:47:25;21.90;91.50
36450;DHT22;22475;51.390;7.180;2022-08-19T03:49:54;21.90;91.40
36450;DHT22;22475;51.390;7.180;2022-08-19T03:52:21;22.00;91.50
36450;DHT22;22475;51.390;7.180;2022-08-19T03:54:48;22.00;91.50
36450;DHT22;22475;51.390;7.180;2022-08-19T03:57:14;21.90;91.40
36450;DHT22;22475;51.390;7.180;2022-08-19T03:59:43;21.90;91.40
36450;DHT22;22475;51.390;7.180;2022-08-19T04:02:11;21.90;91.40
36450;DHT22;22475;51.390;7.180;2022-08-19T04:04:40;21.90;91.40
36450;DHT22;22475;51.390;7.180;2022-08-19T04:07:09;21.90;91.40
36450;DHT22;22475;51.390;7.180;2022-08-19T04:09:36;21.90;91.40
36450;DHT22;22475;51.390;7.180;2022-08-19T04:12:04;21.90;91.40
36450;DHT22;22475;51.390;7.180;2022-08-19T04:14:33;21.90;91.40
36450;DHT22;22475;51.390;7.180;2022-08-19T04:17:03;21.90;91.40
36450;DHT22;22475;51.390;7.180;2022-08-19T04:19:31;21.90;91.40
36450;DHT22;22475;51.390;7.180;2022-08-19T04:21:58;21.90;91.40
36450;DHT22;22475;51.390;7.180;2022-08-19T04:24:25;21.90;91.40
36450;DHT22;22475;51.390;7.180;2022-08-19T04:26:52;21.90;91.40
36450;DHT22;22475;51.390;7.180;2022-08-19T04:29:21;21.90;91.40
36450;DHT22;22475;51.390;7.180;2022-08-19T04:31:50;21.90;91.40
36450;DHT22;22475;51.390;7.180;2022-08-19T04:34:22;21.90;91.40
36450;DHT22;22475;51.390;7.180;2022-08-19T04:36:50;21.90;91.40
36450;DHT22;22475;51.390;7.180;2022-08-19T04:39:19;21.80;91.40
36450;DHT22;22475;51.390;7.180;2022-08-19T04:41:47;21.90;91.40
36450;DHT22;22475;51.390;7.180;2022-08-19T04:44:32;21.90;91.40
36450;DHT22;22475;51.390;7.180;2022-08-19T04:47:00;21.80;91.40
36450;DHT22;22475;51.390;7.180;2022-08-19T04:49:30;21.80;91.40
36450;DHT22;22475;51.390;7.180;2022-08-19T04:51:58;21.80;91.40
36450;DHT22;22475;51.390;7.180;2022-08-19T04:54:25;21.80;91.40
36450;DHT22;22475;51.390;7.180;2022-08-19T04:56:52;21.80;91.40
36450;DHT22;22475;51.390;7.180;2022-08-19T04:59:20;21.90;91.40
36450;DHT22;22475;51.390;7.180;2022-08-19T05:01:47;21.80;91.40
36450;DHT22;22475;51.390;7.180;2022-08-19T05:04:17;21.80;91.40
36450;DHT22;22475;51.390;7.180;2022-08-19T05:06:46;21.80;91.40
36450;DHT22;22475;51.390;7.180;2022-08-19T05:09:14;21.80;91.40
36450;DHT22;22475;51.390;7.180;2022-08-19T05:11:42;21.80;91.40
36450;DHT22;22475;51.390;7.180;2022-08-19T05:14:10;21.80;91.40
36450;DHT22;22475;51.390;7.180;2022-08-19T05:16:38;21.80;91.40
36450;DHT22;22475;51.390;7.180;2022-08-19T05:19:05;21.80;91.40
36450;DHT22;22475;51.390;7.180;2022-08-19T05:21:51;21.80;91.40
36450;DHT22;22475;51.390;7.180;2022-08-19T05:24:36;21.80;91.40
36450;DHT22;22475;51.390;7.180;2022-08-19T05:27:04;21.90;91.40
36450;DHT22;22475;51.390;7.180;2022-08-19T05:29:31;21.80;91.40
36450;DHT22;22475;51.390;7.180;2022-08-19T05:32:00;21.80;91.40
36450;DHT22;22475;51.390;7.180;2022-08-19T05:34:37;21.80;91.40
36450;DHT22;22475;51.390;7.180;2022-08-19T05:37:06;21.80;91.40
36450;DHT22;22475;51.390;7.180;2022-08-19T05:39:36;21.80;91.50
36450;DHT22;22475;51.390;7.180;2022-08-19T05:42:04;21.80;91.40
36450;DHT22;22475;51.390;7.180;2022-08-19T05:44:34;21.80;91.40
36450;DHT22;22475;51.390;7.180;2022-08-19T05:47:03;21.80;91.50
36450;DHT22;22475;51.390;7.180;2022-08-19T05:49:32;21.80;91.40
36450;DHT22;22475;51.390;7.180;2022-08-19T05:52:02;21.80;91.50
36450;DHT22;22475;51.390;7.180;2022-08-19T05:54:30;21.80;91.50
36450;DHT22;22475;51.390;7.180;2022-08-19T05:56:57;21.90;91.50
36450;DHT22;22475;51.390;7.180;2022-08-19T05:59:24;21.80;91.50
36450;DHT22;22475;51.390;7.180;2022-08-19T06:01:52;21.80;91.50
36450;DHT22;22475;51.390;7.180;2022-08-19T06:04:20;21.80;91.50
36450;DHT22;22475;51.390;7.180;2022-08-19T06:06:49;21.80;91.50
36450;DHT22;22475;51.390;7.180;2022-08-19T06:09:17;21.80;91.50
36450;DHT22;22475;51.390;7.180;2022-08-19T06:11:47;21.80;91.50
36450;DHT22;22475;51.390;7.180;2022-08-19T06:14:16;21.80;91.50
36450;DHT22;22475;51.390;7.180;2022-08-19T06:16:44;21.80;91.50
36450;DHT22;22475;51.390;7.180;2022-08-19T06:19:13;21.90;91.50
36450;DHT22;22475;51.390;7.180;2022-08-19T06:21:43;21.80;91.50
36450;DHT22;22475;51.390;7.180;2022-08-19T06:24:13;21.80;91.50
36450;DHT22;22475;51.390;7.180;2022-08-19T06:26:44;21.80;91.50
36450;DHT22;22475;51.390;7.180;2022-08-19T06:29:14;21.80;91.50
36450;DHT22;22475;51.390;7.180;2022-08-19T06:31:43;21.80;91.50
36450;DHT22;22475;51.390;7.180;2022-08-19T06:34:15;21.80;91.50
36450;DHT22;22475;51.390;7.180;2022-08-19T06:36:45;21.80;91.50
36450;DHT22;22475;51.390;7.180;2022-08-19T06:39:15;21.90;91.50
36450;DHT22;22475;51.390;7.180;2022-08-19T06:41:48;21.80;91.50
36450;DHT22;22475;51.390;7.180;2022-08-19T06:44:19;21.90;91.50
36450;DHT22;22475;51.390;7.180;2022-08-19T06:46:53;21.90;91.50
36450;DHT22;22475;51.390;7.180;2022-08-19T06:49:23;21.90;91.50
36450;DHT22;22475;51.390;7.180;2022-08-19T06:51:59;21.90;91.60
36450;DHT22;22475;51.390;7.180;2022-08-19T06:54:28;21.80;91.50
36450;DHT22;22475;51.390;7.180;2022-08-19T06:56:56;21.90;91.60
36450;DHT22;22475;51.390;7.180;2022-08-19T06:59:25;21.80;91.50
36450;DHT22;22475;51.390;7.180;2022-08-19T07:01:55;21.90;91.60
36450;DHT22;22475;51.390;7.180;2022-08-19T07:04:25;21.80;91.50
36450;DHT22;22475;51.390;7.180;2022-08-19T07:06:57;21.80;91.50
36450;DHT22;22475;51.390;7.180;2022-08-19T07:09:24;21.90;91.50
36450;DHT22;22475;51.390;7.180;2022-08-19T07:11:52;21.90;91.60
36450;DHT22;22475;51.390;7.180;2022-08-19T07:14:21;21.90;91.60
36450;DHT22;22475;51.390;7.180;2022-08-19T07:16:51;21.90;91.60
36450;DHT22;22475;51.390;7.180;2022-08-19T07:19:20;21.90;91.60
36450;DHT22;22475;51.390;7.180;2022-08-19T07:21:49;21.80;91.60
36450;DHT22;22475;51.390;7.180;2022-08-19T07:24:17;21.90;91.60
36450;DHT22;22475;51.390;7.180;2022-08-19T07:26:44;21.90;91.70
36450;DHT22;22475;51.390;7.180;2022-08-19T07:29:11;21.90;91.70
36450;DHT22;22475;51.390;7.180;2022-08-19T07:31:39;21.90;91.70
36450;DHT22;22475;51.390;7.180;2022-08-19T07:34:09;21.90;91.70
36450;DHT22;22475;51.390;7.180;2022-08-19T07:36:39;21.90;91.70
36450;DHT22;22475;51.390;7.180;2022-08-19T07:39:12;21.80;91.70
36450;DHT22;22475;51.390;7.180;2022-08-19T07:41:39;21.90;91.70
36450;DHT22;22475;51.390;7.180;2022-08-19T07:44:07;21.90;91.70
36450;DHT22;22475;51.390;7.180;2022-08-19T07:46:36;21.90;91.70
36450;DHT22;22475;51.390;7.180;2022-08-19T07:49:04;21.90;91.70
36450;DHT22;22475;51.390;7.180;2022-08-19T07:51:33;21.90;91.70
36450;DHT22;22475;51.390;7.180;2022-08-19T07:54:00;21.90;91.70
36450;DHT22;22475;51.390;7.180;2022-08-19T07:56:27;21.90;91.70
36450;DHT22;22475;51.390;7.180;2022-08-19T07:58:54;21.90;91.70
36450;DHT22;22475;51.390;7.180;2022-08-19T08:01:23;21.90;91.70
36450;DHT22;22475;51.390;7.180;2022-08-19T08:03:52;21.90;91.70
36450;DHT22;22475;51.390;7.180;2022-08-19T08:06:38;21.90;91.70
36450;DHT22;22475;51.390;7.180;2022-08-19T08:09:25;21.90;91.80
36450;DHT22;22475;51.390;7.180;2022-08-19T08:11:54;21.90;91.70
36450;DHT22;22475;51.390;7.180;2022-08-19T08:14:25;21.90;91.70
36450;DHT22;22475;51.390;7.180;2022-08-19T08:16:53;21.90;91.70
36450;DHT22;22475;51.390;7.180;2022-08-19T08:19:22;21.90;91.70
36450;DHT22;22475;51.390;7.180;2022-08-19T08:21:52;21.90;91.80
36450;DHT22;22475;51.390;7.180;2022-08-19T08:24:19;21.90;92.10
36450;DHT22;22475;51.390;7.180;2022-08-19T08:26:46;21.90;91.70
36450;DHT22;22475;51.390;7.180;2022-08-19T08:29:13;21.90;91.70
36450;DHT22;22475;51.390;7.180;2022-08-19T08:31:45;21.90;91.80
36450;DHT22;22475;51.390;7.180;2022-08-19T08:34:13;21.90;91.70
36450;DHT22;22475;51.390;7.180;2022-08-19T08:36:43;21.90;91.70
36450;DHT22;22475;51.390;7.180;2022-08-19T08:39:13;21.90;91.70
36450;DHT22;22475;51.390;7.180;2022-08-19T08:41:46;21.90;91.70
36450;DHT22;22475;51.390;7.180;2022-08-19T08:44:17;21.90;91.70
36450;DHT22;22475;51.390;7.180;2022-08-19T08:46:47;21.90;91.70
36450;DHT22;22475;51.390;7.180;2022-08-19T08:49:23;21.90;91.70
36450;DHT22;22475;51.390;7.180;2022-08-19T08:51:55;21.90;91.70
36450;DHT22;22475;51.390;7.180;2022-08-19T08:54:32;21.90;91.70
36450;DHT22;22475;51.390;7.180;2022-08-19T08:56:59;21.90;91.70
36450;DHT22;22475;51.390;7.180;2022-08-19T08:59:29;21.90;91.70
36450;DHT22;22475;51.390;7.180;2022-08-19T09:01:58;21.90;91.70
36450;DHT22;22475;51.390;7.180;2022-08-19T09:04:25;21.90;91.70
36450;DHT22;22475;51.390;7.180;2022-08-19T09:06:58;21.90;91.70
36450;DHT22;22475;51.390;7.180;2022-08-19T09:09:33;21.90;91.70
36450;DHT22;22475;51.390;7.180;2022-08-19T09:12:07;21.90;91.80
36450;DHT22;22475;51.390;7.180;2022-08-19T09:14:43;21.90;91.70
36450;DHT22;22475;51.390;7.180;2022-08-19T09:17:13;21.90;91.70
36450;DHT22;22475;51.390;7.180;2022-08-19T09:19:49;21.90;91.70
36450;DHT22;22475;51.390;7.180;2022-08-19T09:22:16;21.90;91.70
36450;DHT22;22475;51.390;7.180;2022-08-19T09:24:51;21.90;91.70
36450;DHT22;22475;51.390;7.180;2022-08-19T09:27:19;21.90;91.70
36450;DHT22;22475;51.390;7.180;2022-08-19T09:29:49;21.90;91.70
36450;DHT22;22475;51.390;7.180;2022-08-19T09:32:16;21.90;91.70
36450;DHT22;22475;51.390;7.180;2022-08-19T09:34:43;21.90;92.10
36450;DHT22;22475;51.390;7.180;2022-08-19T09:37:11;21.90;91.70
36450;DHT22;22475;51.390;7.180;2022-08-19T09:39:38;21.90;91.70
36450;DHT22;22475;51.390;7.180;2022-08-19T09:42:07;21.90;91.70
36450;DHT22;22475;51.390;7.180;2022-08-19T09:44:37;21.90;91.70
36450;DHT22;22475;51.390;7.180;2022-08-19T09:47:04;21.90;91.70
36450;DHT22;22475;51.390;7.180;2022-08-19T09:49:32;21.90;91.70
36450;DHT22;22475;51.390;7.180;2022-08-19T09:52:00;21.90;91.70
36450;DHT22;22475;51.390;7.180;2022-08-19T09:54:27;21.90;91.70
36450;DHT22;22475;51.390;7.180;2022-08-19T09:56:54;21.90;92.10
36450;DHT22;22475;51.390;7.180;2022-08-19T09:59:23;21.90;91.70
36450;DHT22;22475;51.390;7.180;2022-08-19T10:01:50;22.00;91.80
36450;DHT22;22475;51.390;7.180;2022-08-19T10:04:17;21.90;91.70
36450;DHT22;22475;51.390;7.180;2022-08-19T10:06:45;21.90;91.70
36450;DHT22;22475;51.390;7.180;2022-08-19T10:09:14;21.90;91.70
36450;DHT22;22475;51.390;7.180;2022-08-19T10:11:43;21.90;91.70
36450;DHT22;22475;51.390;7.180;2022-08-19T10:14:11;21.90;91.70
36450;DHT22;22475;51.390;7.180;2022-08-19T10:16:40;21.90;91.70
36450;DHT22;22475;51.390;7.180;2022-08-19T10:19:07;21.90;91.70
36450;DHT22;22475;51.390;7.180;2022-08-19T10:21:35;21.90;91.70
36450;DHT22;22475;51.390;7.180;2022-08-19T10:24:07;21.90;91.70
36450;DHT22;22475;51.390;7.180;2022-08-19T10:26:37;21.90;91.70
36450;DHT22;22475;51.390;7.180;2022-08-19T10:29:07;21.90;91.70
36450;DHT22;22475;51.390;7.180;2022-08-19T10:31:34;21.90;91.70
36450;DHT22;22475;51.390;7.180;2022-08-19T10:34:02;21.90;91.70
36450;DHT22;22475;51.390;7.180;2022-08-19T10:36:31;21.90;91.70
36450;DHT22;22475;51.390;7.180;2022-08-19T10:39:00;21.90;91.70
36450;DHT22;22475;51.390;7.180;2022-08-19T10:41:31;22.00;91.70
36450;DHT22;22475;51.390;7.180;2022-08-19T10:44:02;21.90;91.70
36450;DHT22;22475;51.390;7.180;2022-08-19T10:46:30;22.00;91.80
36450;DHT22;22475;51.390;7.180;2022-08-19T10:48:59;22.00;91.70
36450;DHT22;22475;51.390;7.180;2022-08-19T10:51:28;21.90;91.70
36450;DHT22;22475;51.390;7.180;2022-08-19T10:54:13;21.90;91.70
36450;DHT22;22475;51.390;7.180;2022-08-19T10:56:40;21.90;91.70
36450;DHT22;22475;51.390;7.180;2022-08-19T10:59:19;21.90;91.70
36450;DHT22;22475;51.390;7.180;2022-08-19T11:01:47;21.90;91.70
36450;DHT22;22475;51.390;7.180;2022-08-19T11:04:14;21.90;91.70
36450;DHT22;22475;51.390;7.180;2022-08-19T11:06:45;22.00;91.70
36450;DHT22;22475;51.390;7.180;2022-08-19T11:09:13;22.00;91.70
36450;DHT22;22475;51.390;7.180;2022-08-19T11:11:42;21.90;91.60
36450;DHT22;22475;51.390;7.180;2022-08-19T11:14:10;21.90;91.60
36450;DHT22;22475;51.390;7.180;2022-08-19T11:16:38;21.90;91.60
36450;DHT22;22475;51.390;7.180;2022-08-19T11:19:07;22.00;91.70
36450;DHT22;22475;51.390;7.180;2022-08-19T11:21:35;22.00;91.70
36450;DHT22;22475;51.390;7.180;2022-08-19T11:24:07;22.00;91.70
36450;DHT22;22475;51.390;7.180;2022-08-19T11:26:36;22.00;91.70
36450;DHT22;22475;51.390;7.180;2022-08-19T11:29:05;21.90;91.60
36450;DHT22;22475;51.390;7.180;2022-08-19T11:31:34;21.90;91.60
36450;DHT22;22475;51.390;7.180;2022-08-19T11:34:04;21.90;91.60
36450;DHT22;22475;51.390;7.180;2022-08-19T11:36:32;21.90;91.60
36450;DHT22;22475;51.390;7.180;2022-08-19T11:38:59;21.90;91.60
36450;DHT22;22475;51.390;7.180;2022-08-19T11:41:27;21.90;91.70
36450;DHT22;22475;51.390;7.180;2022-08-19T11:43:54;22.00;91.70
36450;DHT22;22475;51.390;7.180;2022-08-19T11:46:24;22.00;91.70
36450;DHT22;22475;51.390;7.180;2022-08-19T11:48:51;22.00;91.70
36450;DHT22;22475;51.390;7.180;2022-08-19T11:51:20;21.90;91.70
36450;DHT22;22475;51.390;7.180;2022-08-19T11:53:48;22.00;91.70
36450;DHT22;22475;51.390;7.180;2022-08-19T11:56:15;22.00;91.70
36450;DHT22;22475;51.390;7.180;2022-08-19T11:58:55;22.00;91.70
36450;DHT22;22475;51.390;7.180;2022-08-19T12:01:25;22.00;91.70
36450;DHT22;22475;51.390;7.180;2022-08-19T12:03:54;22.00;91.70
36450;DHT22;22475;51.390;7.180;2022-08-19T12:06:26;22.00;91.70
36450;DHT22;22475;51.390;7.180;2022-08-19T12:08:54;22.00;91.70
36450;DHT22;22475;51.390;7.180;2022-08-19T12:11:22;22.00;91.70
36450;DHT22;22475;51.390;7.180;2022-08-19T12:13:51;22.00;91.70
36450;DHT22;22475;51.390;7.180;2022-08-19T12:16:21;22.00;92.00
36450;DHT22;22475;51.390;7.180;2022-08-19T12:18:56;22.00;91.70
36450;DHT22;22475;51.390;7.180;2022-08-19T12:21:30;22.00;91.70
36450;DHT22;22475;51.390;7.180;2022-08-19T12:24:01;22.00;91.70
36450;DHT22;22475;51.390;7.180;2022-08-19T12:26:29;22.00;91.70
36450;DHT22;22475;51.390;7.180;2022-08-19T12:29:02;22.00;91.70
36450;DHT22;22475;51.390;7.180;2022-08-19T12:31:29;22.00;92.00
36450;DHT22;22475;51.390;7.180;2022-08-19T12:33:57;22.00;91.60
36450;DHT22;22475;51.390;7.180;2022-08-19T12:36:24;22.00;91.60
36450;DHT22;22475;51.390;7.180;2022-08-19T12:38:51;22.00;91.60
36450;DHT22;22475;51.390;7.180;2022-08-19T12:41:19;22.00;91.60
36450;DHT22;22475;51.390;7.180;2022-08-19T12:43:47;22.00;91.60
36450;DHT22;22475;51.390;7.180;2022-08-19T12:46:18;22.00;91.60
36450;DHT22;22475;51.390;7.180;2022-08-19T12:48:45;22.00;91.60
36450;DHT22;22475;51.390;7.180;2022-08-19T12:51:19;22.00;92.00
36450;DHT22;22475;51.390;7.180;2022-08-19T12:53:47;22.00;91.60
36450;DHT22;22475;51.390;7.180;2022-08-19T12:56:15;22.00;91.60
36450;DHT22;22475;51.390;7.180;2022-08-19T12:58:43;22.00;91.60
36450;DHT22;22475;51.390;7.180;2022-08-19T13:01:11;22.00;91.60
36450;DHT22;22475;51.390;7.180;2022-08-19T13:03:40;22.00;91.50
36450;DHT22;22475;51.390;7.180;2022-08-19T13:06:09;22.00;91.60
36450;DHT22;22475;51.390;7.180;2022-08-19T13:08:37;22.00;91.60
36450;DHT22;22475;51.390;7.180;2022-08-19T13:11:09;22.00;91.60
36450;DHT22;22475;51.390;7.180;2022-08-19T13:13:37;22.00;91.60
36450;DHT22;22475;51.390;7.180;2022-08-19T13:16:07;22.00;91.60
36450;DHT22;22475;51.390;7.180;2022-08-19T13:18:35;22.00;91.60
36450;DHT22;22475;51.390;7.180;2022-08-19T13:21:05;22.00;91.60
36450;DHT22;22475;51.390;7.180;2022-08-19T13:23:33;22.00;91.60
36450;DHT22;22475;51.390;7.180;2022-08-19T13:26:03;22.00;91.60
36450;DHT22;22475;51.390;7.180;2022-08-19T13:28:35;22.00;91.60
36450;DHT22;22475;51.390;7.180;2022-08-19T13:31:21;22.00;91.60
36450;DHT22;22475;51.390;7.180;2022-08-19T13:34:05;22.00;91.60
36450;DHT22;22475;51.390;7.180;2022-08-19T13:36:35;22.00;91.50
36450;DHT22;22475;51.390;7.180;2022-08-19T13:39:02;22.00;91.60
36450;DHT22;22475;51.390;7.180;2022-08-19T13:41:30;22.00;91.60
36450;DHT22;22475;51.390;7.180;2022-08-19T13:43:57;22.00;91.60
36450;DHT22;22475;51.390;7.180;2022-08-19T13:46:24;22.00;91.60
36450;DHT22;22475;51.390;7.180;2022-08-19T13:48:50;22.00;91.60
36450;DHT22;22475;51.390;7.180;2022-08-19T13:51:18;22.00;91.70
36450;DHT22;22475;51.390;7.180;2022-08-19T13:53:46;22.00;91.60
36450;DHT22;22475;51.390;7.180;2022-08-19T13:56:15;22.10;91.60
36450;DHT22;22475;51.390;7.180;2022-08-19T13:58:45;22.00;91.60
36450;DHT22;22475;51.390;7.180;2022-08-19T14:01:12;22.10;91.60
36450;DHT22;22475;51.390;7.180;2022-08-19T14:03:44;22.00;91.50
36450;DHT22;22475;51.390;7.180;2022-08-19T14:06:11;22.00;91.50
36450;DHT22;22475;51.390;7.180;2022-08-19T14:08:38;22.00;91.50
36450;DHT22;22475;51.390;7.180;2022-08-19T14:11:08;22.10;91.50
36450;DHT22;22475;51.390;7.180;2022-08-19T14:13:35;22.10;91.50
36450;DHT22;22475;51.390;7.180;2022-08-19T14:16:07;22.10;91.50
36450;DHT22;22475;51.390;7.180;2022-08-19T14:18:35;22.10;91.50
36450;DHT22;22475;51.390;7.180;2022-08-19T14:21:03;22.10;91.50
36450;DHT22;22475;51.390;7.180;2022-08-19T14:23:30;22.10;91.50
36450;DHT22;22475;51.390;7.180;2022-08-19T14:26:04;22.10;91.50
36450;DHT22;22475;51.390;7.180;2022-08-19T14:28:32;22.10;91.50
36450;DHT22;22475;51.390;7.180;2022-08-19T14:30:59;22.10;91.50
36450;DHT22;22475;51.390;7.180;2022-08-19T14:33:26;22.10;91.50
36450;DHT22;22475;51.390;7.180;2022-08-19T14:35:53;22.10;91.80
36450;DHT22;22475;51.390;7.180;2022-08-19T14:38:20;22.10;91.50
36450;DHT22;22475;51.390;7.180;2022-08-19T14:40:47;22.10;91.40
36450;DHT22;22475;51.390;7.180;2022-08-19T14:43:14;22.10;91.40
36450;DHT22;22475;51.390;7.180;2022-08-19T14:45:44;22.10;91.40
36450;DHT22;22475;51.390;7.180;2022-08-19T14:48:11;22.10;91.40
36450;DHT22;22475;51.390;7.180;2022-08-19T14:50:38;22.10;91.40
36450;DHT22;22475;51.390;7.180;2022-08-19T14:53:07;22.10;91.40
36450;DHT22;22475;51.390;7.180;2022-08-19T14:55:34;22.10;91.40
36450;DHT22;22475;51.390;7.180;2022-08-19T14:58:01;22.10;91.40
36450;DHT22;22475;51.390;7.180;2022-08-19T15:00:28;22.10;91.40
36450;DHT22;22475;51.390;7.180;2022-08-19T15:02:56;22.10;91.40
36450;DHT22;22475;51.390;7.180;2022-08-19T15:05:24;22.10;91.40
36450;DHT22;22475;51.390;7.180;2022-08-19T15:07:52;22.10;91.40
36450;DHT22;22475;51.390;7.180;2022-08-19T15:10:22;22.10;91.40
36450;DHT22;22475;51.390;7.180;2022-08-19T15:12:50;22.10;91.40
36450;DHT22;22475;51.390;7.180;2022-08-19T15:15:16;22.10;91.40
36450;DHT22;22475;51.390;7.180;2022-08-19T15:17:44;22.10;91.40
36450;DHT22;22475;51.390;7.180;2022-08-19T15:20:16;22.10;91.40
36450;DHT22;22475;51.390;7.180;2022-08-19T15:22:44;22.10;91.40
36450;DHT22;22475;51.390;7.180;2022-08-19T15:25:13;22.20;91.40
36450;DHT22;22475;51.390;7.180;2022-08-19T15:27:41;22.10;91.40
36450;DHT22;22475;51.390;7.180;2022-08-19T15:30:09;22.10;91.40
36450;DHT22;22475;51.390;7.180;2022-08-19T15:32:37;22.10;91.40
36450;DHT22;22475;51.390;7.180;2022-08-19T15:35:06;22.10;91.70
36450;DHT22;22475;51.390;7.180;2022-08-19T15:37:34;22.10;91.30
36450;DHT22;22475;51.390;7.180;2022-08-19T15:40:03;22.10;91.30